sensor_id;sensor_type;location;lat;lon;timestamp;P1;durP1;ratioP1;P2;durP2;ratioP2
29688;SDS011;16600;47.444;8.334;2024-01-15T00:04:28;37.60;;;25.42;;
29688;SDS011;16600;47.444;8.334;2024-01-15T00:09:19;43.65;;;25.52;;
29688;SDS011;16600;47.444;8.334;2024-01-15T00:14:10;36.22;;;23.08;;
29688;SDS011;16600;47.444;8.334;2024-01-15T00:19:01;35.80;;;23.70;;
29688;SDS011;16600;47.444;8.334;2024-01-15T00:21:27;36.40;;;23.85;;
29688;SDS011;16600;47.444;8.334;2024-01-15T00:23:56;37.15;;;23.65;;
29688;SDS011;16600;47.444;8.334;2024-01-15T00:28:46;36.17;;;20.75;;
29688;SDS011;16600;47.444;8.334;2024-01-15T00:33:39;28.38;;;19.95;;
29688;SDS011;16600;47.444;8.334;2024-01-15T00:36:06;28.20;;;19.70;;
29688;SDS011;16600;47.444;8.334;2024-01-15T00:38:32;28.65;;;18.25;;
29688;SDS011;16600;47.444;8.334;2024-01-15T00:40:58;32.10;;;18.85;;
29688;SDS011;16600;47.444;8.334;2024-01-15T00:43:24;25.95;;;18.17;;
29688;SDS011;16600;47.444;8.334;2024-01-15T00:48:15;27.35;;;16.27;;
29688;SDS011;16600;47.444;8.334;2024-01-15T00:50:43;39.83;;;17.48;;
29688;SDS011;16600;47.444;8.334;2024-01-15T00:55:34;24.35;;;17.15;;
29688;SDS011;16600;47.444;8.334;2024-01-15T00:58:03;26.63;;;17.27;;
29688;SDS011;16600;47.444;8.334;2024-01-15T01:13:26;29.20;;;21.53;;
29688;SDS011;16600;47.444;8.334;2024-01-15T01:15:53;28.23;;;20.30;;
29688;SDS011;16600;47.444;8.334;2024-01-15T01:18:19;31.70;;;20.67;;
29688;SDS011;16600;47.444;8.334;2024-01-15T01:23:10;33.55;;;20.75;;
29688;SDS011;16600;47.444;8.334;2024-01-15T01:25:36;30.40;;;21.70;;
29688;SDS011;16600;47.444;8.334;2024-01-15T01:30:27;47.03;;;24.42;;
29688;SDS011;16600;47.444;8.334;2024-01-15T01:35:18;34.78;;;24.08;;
29688;SDS011;16600;47.444;8.334;2024-01-15T01:37:45;37.55;;;24.70;;
29688;SDS011;16600;47.444;8.334;2024-01-15T01:40:10;38.45;;;25.20;;
29688;SDS011;16600;47.444;8.334;2024-01-15T01:45:02;41.72;;;25.67;;
29688;SDS011;16600;47.444;8.334;2024-01-15T01:47:29;40.92;;;26.20;;
29688;SDS011;16600;47.444;8.334;2024-01-15T01:49:55;52.85;;;28.33;;
29688;SDS011;16600;47.444;8.334;2024-01-15T01:54:46;43.08;;;26.58;;
29688;SDS011;16600;47.444;8.334;2024-01-15T01:57:12;40.72;;;25.52;;
29688;SDS011;16600;47.444;8.334;2024-01-15T01:59:39;47.92;;;27.92;;
29688;SDS011;16600;47.444;8.334;2024-01-15T02:04:30;53.63;;;31.20;;
29688;SDS011;16600;47.444;8.334;2024-01-15T02:06:56;46.78;;;30.40;;
29688;SDS011;16600;47.444;8.334;2024-01-15T02:09:23;49.20;;;29.95;;
29688;SDS011;16600;47.444;8.334;2024-01-15T02:14:14;57.92;;;31.27;;
29688;SDS011;16600;47.444;8.334;2024-01-15T02:16:43;63.35;;;34.47;;
29688;SDS011;16600;47.444;8.334;2024-01-15T02:21:34;55.30;;;35.28;;
29688;SDS011;16600;47.444;8.334;2024-01-15T02:23:59;58.42;;;35.22;;
29688;SDS011;16600;47.444;8.334;2024-01-15T02:26:25;69.40;;;35.70;;
29688;SDS011;16600;47.444;8.334;2024-01-15T02:28:51;58.25;;;35.88;;
29688;SDS011;16600;47.444;8.334;2024-01-15T02:31:17;63.20;;;35.63;;
29688;SDS011;16600;47.444;8.334;2024-01-15T02:33:43;61.50;;;34.85;;
29688;SDS011;16600;47.444;8.334;2024-01-15T02:36:11;65.60;;;37.45;;
29688;SDS011;16600;47.444;8.334;2024-01-15T02:38:38;67.57;;;36.80;;
29688;SDS011;16600;47.444;8.334;2024-01-15T02:41:04;66.07;;;36.17;;
29688;SDS011;16600;47.444;8.334;2024-01-15T02:43:30;64.35;;;35.03;;
29688;SDS011;16600;47.444;8.334;2024-01-15T02:48:23;48.38;;;29.55;;
29688;SDS011;16600;47.444;8.334;2024-01-15T02:50:50;47.17;;;29.92;;
29688;SDS011;16600;47.444;8.334;2024-01-15T02:53:16;58.13;;;31.25;;
29688;SDS011;16600;47.444;8.334;2024-01-15T02:55:42;58.20;;;30.25;;
29688;SDS011;16600;47.444;8.334;2024-01-15T02:58:08;49.80;;;29.77;;
29688;SDS011;16600;47.444;8.334;2024-01-15T19:13:32;17.00;;;9.57;;
29688;SDS011;16600;47.444;8.334;2024-01-15T19:16:01;9.85;;;7.28;;
29688;SDS011;16600;47.444;8.334;2024-01-15T19:18:28;13.55;;;8.98;;
29688;SDS011;16600;47.444;8.334;2024-01-15T19:21:04;16.50;;;8.65;;
29688;SDS011;16600;47.444;8.334;2024-01-15T19:23:37;14.32;;;8.98;;
29688;SDS011;16600;47.444;8.334;2024-01-15T19:26:03;19.67;;;8.82;;
29688;SDS011;16600;47.444;8.334;2024-01-15T19:28:32;15.35;;;10.18;;
29688;SDS011;16600;47.444;8.334;2024-01-15T19:30:58;13.00;;;8.98;;
29688;SDS011;16600;47.444;8.334;2024-01-15T19:33:25;14.40;;;9.27;;
29688;SDS011;16600;47.444;8.334;2024-01-15T19:35:51;13.15;;;8.48;;
29688;SDS011;16600;47.444;8.334;2024-01-15T19:38:17;13.02;;;9.20;;
29688;SDS011;16600;47.444;8.334;2024-01-15T19:40:46;16.83;;;9.05;;
29688;SDS011;16600;47.444;8.334;2024-01-15T19:43:16;13.68;;;10.15;;
29688;SDS011;16600;47.444;8.334;2024-01-15T19:45:45;12.48;;;8.35;;
29688;SDS011;16600;47.444;8.334;2024-01-15T19:48:11;15.25;;;9.32;;
29688;SDS011;16600;47.444;8.334;2024-01-15T19:50:39;16.65;;;8.73;;
29688;SDS011;16600;47.444;8.334;2024-01-15T19:53:08;21.30;;;10.95;;
29688;SDS011;16600;47.444;8.334;2024-01-15T19:55:34;14.27;;;10.18;;
29688;SDS011;16600;47.444;8.334;2024-01-15T19:58:01;14.93;;;9.60;;
29688;SDS011;16600;47.444;8.334;2024-01-15T20:00:27;17.52;;;10.05;;
29688;SDS011;16600;47.444;8.334;2024-01-15T20:02:53;14.13;;;9.88;;
29688;SDS011;16600;47.444;8.334;2024-01-15T20:05:19;15.32;;;9.57;;
29688;SDS011;16600;47.444;8.334;2024-01-15T20:07:49;13.23;;;8.20;;
29688;SDS011;16600;47.444;8.334;2024-01-15T20:10:15;13.73;;;9.57;;
29688;SDS011;16600;47.444;8.334;2024-01-15T20:12:41;15.80;;;9.32;;
29688;SDS011;16600;47.444;8.334;2024-01-15T20:15:12;13.75;;;9.23;;
29688;SDS011;16600;47.444;8.334;2024-01-15T20:17:38;18.42;;;11.02;;
29688;SDS011;16600;47.444;8.334;2024-01-15T20:20:05;16.38;;;10.15;;
29688;SDS011;16600;47.444;8.334;2024-01-15T20:22:38;15.65;;;10.75;;
29688;SDS011;16600;47.444;8.334;2024-01-15T20:25:07;22.40;;;11.55;;
29688;SDS011;16600;47.444;8.334;2024-01-15T20:27:33;15.60;;;10.50;;
29688;SDS011;16600;47.444;8.334;2024-01-15T20:30:00;14.20;;;10.00;;
29688;SDS011;16600;47.444;8.334;2024-01-15T20:32:30;11.45;;;9.38;;
29688;SDS011;16600;47.444;8.334;2024-01-15T20:34:59;17.75;;;11.02;;
29688;SDS011;16600;47.444;8.334;2024-01-15T20:37:25;16.90;;;11.20;;
29688;SDS011;16600;47.444;8.334;2024-01-15T20:39:55;26.08;;;12.15;;
29688;SDS011;16600;47.444;8.334;2024-01-15T20:42:21;16.98;;;11.55;;
29688;SDS011;16600;47.444;8.334;2024-01-15T20:44:47;20.63;;;11.05;;
29688;SDS011;16600;47.444;8.334;2024-01-15T20:47:17;21.25;;;12.05;;
29688;SDS011;16600;47.444;8.334;2024-01-15T20:49:46;16.58;;;11.18;;
29688;SDS011;16600;47.444;8.334;2024-01-15T20:52:16;15.98;;;11.40;;
29688;SDS011;16600;47.444;8.334;2024-01-15T20:54:49;21.77;;;13.30;;
29688;SDS011;16600;47.444;8.334;2024-01-15T20:57:15;16.80;;;10.88;;
29688;SDS011;16600;47.444;8.334;2024-01-15T20:59:44;19.02;;;11.18;;
